Time;durP1;ratioP1;P1;durP2;ratioP2;P2;SDS_P1;SDS_P2;PMS_P1;PMS_P2;Temp;Humidity;BMP_temperature;BMP_pressure;BME280_temperature;BME280_humidity;BME280_pressure;Samples;Min_cycle;Max_cycle;Signal;HPM_P1;HPM_P2
2021/05/11 00:00:40;;;;;;;6.43;3.10;;;15.70;71.00;;;;;;5092473;28;20483;-68
2021/05/11 00:03:08;;;;;;;9.47;3.33;;;15.70;70.70;;;;;;5091361;28;20439;-69
2021/05/11 00:05:36;;;;;;;9.17;3.10;;;15.70;70.70;;;;;;5091997;28;20492;-69
2021/05/11 00:08:03;;;;;;;4.43;2.80;;;15.60;71.30;;;;;;5092477;28;20829;-69
2021/05/11 00:10:30;;;;;;;4.30;3.20;;;15.50;71.30;;;;;;5092382;28;20439;-69
2021/05/11 00:12:58;;;;;;;3.30;2.87;;;15.50;71.10;;;;;;5092116;28;20526;-69
2021/05/11 00:15:28;;;;;;;6.50;4.10;;;15.50;71.10;;;;;;5092376;28;20427;-70
2021/05/11 00:17:58;;;;;;;4.43;3.43;;;15.40;71.30;;;;;;5092016;28;20514;-70
2021/05/11 00:20:26;;;;;;;6.07;3.83;;;15.40;70.70;;;;;;5092367;28;20484;-72
2021/05/11 00:22:56;;;;;;;4.87;3.43;;;15.30;70.50;;;;;;5091952;28;20448;-71
2021/05/11 00:25:24;;;;;;;11.23;3.60;;;15.30;71.10;;;;;;5092763;28;20447;-71
2021/05/11 00:27:58;;;;;;;7.13;3.20;;;15.30;71.20;;;;;;5092112;28;20435;-71
2021/05/11 00:30:26;;;;;;;6.83;4.13;;;15.30;70.70;;;;;;5092305;28;20467;-71
2021/05/11 00:32:54;;;;;;;4.43;3.37;;;15.30;71.30;;;;;;5091853;28;20485;-71
2021/05/11 00:35:21;;;;;;;8.20;3.93;;;15.30;71.50;;;;;;5092555;28;20439;-71
2021/05/11 00:37:49;;;;;;;5.83;3.47;;;15.20;70.40;;;;;;5091959;28;20465;-71
2021/05/11 00:40:19;;;;;;;6.00;3.53;;;15.20;69.90;;;;;;5092128;28;20478;-70
2021/05/11 00:42:46;;;;;;;6.73;4.10;;;15.20;70.60;;;;;;5091590;28;20443;-71
2021/05/11 00:45:13;;;;;;;5.67;3.83;;;15.20;71.30;;;;;;5092441;28;20474;-71
2021/05/11 00:47:40;;;;;;;4.63;3.00;;;15.20;71.30;;;;;;5091921;28;20442;-70
2021/05/11 00:50:07;;;;;;;6.50;4.07;;;15.20;70.70;;;;;;5092180;28;20439;-71
2021/05/11 00:52:36;;;;;;;4.93;3.53;;;15.10;70.40;;;;;;5091579;28;21212;-70
2021/05/11 00:55:05;;;;;;;5.43;3.20;;;15.10;70.10;;;;;;5092340;28;20441;-71
2021/05/11 00:57:33;;;;;;;4.90;3.70;;;15.10;69.30;;;;;;5091840;28;20442;-70
2021/05/11 01:00:02;;;;;;;4.85;3.40;;;15.00;69.30;;;;;;5091965;28;20475;-70
2021/05/11 01:02:29;;;;;;;10.10;4.30;;;14.90;69.50;;;;;;5091074;28;20650;-71
2021/05/11 01:04:57;;;;;;;4.80;3.63;;;14.80;69.50;;;;;;5092489;28;20439;-70
2021/05/11 01:07:24;;;;;;;6.17;3.50;;;14.70;70.60;;;;;;5091491;28;20530;-70
2021/05/11 01:09:51;;;;;;;5.13;3.30;;;14.60;70.70;;;;;;5091744;28;20439;-70
2021/05/11 01:12:19;;;;;;;6.55;3.65;;;14.50;71.50;;;;;;5091582;28;20431;-70
2021/05/11 01:14:47;;;;;;;7.27;3.67;;;14.50;72.10;;;;;;5092267;28;20193;-70
2021/05/11 01:17:17;;;;;;;7.43;3.72;;;14.40;72.30;;;;;;5095542;28;20455;-70
2021/05/11 01:19:47;;;;;;;6.23;3.97;;;14.40;72.90;;;;;;5095475;28;20204;-69
2021/05/11 01:22:30;;;;;;;6.78;4.43;;;14.40;73.00;;;;;;5094962;28;20431;-69
2021/05/11 01:24:59;;;;;;;7.07;2.90;;;14.40;72.50;;;;;;5075487;28;20606;-70
2021/05/11 01:27:38;;;;;;;4.10;3.20;;;14.30;72.80;;;;;;5082733;28;20439;-69
2021/05/11 01:30:25;;;;;;;4.50;3.47;;;14.20;73.00;;;;;;5095308;28;20229;-70
2021/05/11 01:33:13;;;;;;;4.65;3.53;;;14.10;73.60;;;;;;5095327;28;20485;-70
2021/05/11 01:44:03;;;;;;;4.43;3.05;;;13.90;73.70;;;;;;5094941;28;20218;-70
2021/05/11 01:47:04;;;;;;;5.18;2.80;;;13.80;73.90;;;;;;5095009;28;20279;-70
2021/05/11 01:49:50;;;;;;;4.22;3.20;;;13.80;74.10;;;;;;5074838;28;20185;-70
2021/05/11 01:52:32;;;;;;;4.65;2.83;;;13.70;75.00;;;;;;5078757;28;20207;-70
2021/05/11 01:55:15;;;;;;;4.10;3.17;;;13.70;75.00;;;;;;5095009;28;20651;-70
2021/05/11 02:22:45;;;;;;;4.18;2.58;;;13.40;78.20;;;;;;5067743;28;20279;-70
2021/05/11 02:25:14;;;;;;;4.65;3.50;;;13.40;78.50;;;;;;5094391;28;20192;-70
2021/05/11 02:27:42;;;;;;;5.88;4.90;;;13.40;79.10;;;;;;5092826;28;20322;-69
2021/05/11 02:30:10;;;;;;;5.57;4.25;;;13.40;79.20;;;;;;5094150;28;20225;-70
2021/05/11 02:32:39;;;;;;;6.18;3.72;;;13.40;79.30;;;;;;5093849;28;20196;-70
2021/05/11 02:35:08;;;;;;;7.13;3.65;;;13.40;78.60;;;;;;5093953;28;20288;-70
2021/05/11 02:37:34;;;;;;;4.78;3.08;;;13.30;77.20;;;;;;5093925;28;20181;-70
2021/05/11 02:40:01;;;;;;;6.25;3.50;;;13.30;77.70;;;;;;5093892;28;20315;-70
2021/05/11 02:42:29;;;;;;;5.47;3.80;;;13.20;77.00;;;;;;5093435;28;20211;-69
2021/05/11 02:44:57;;;;;;;3.92;3.08;;;13.20;76.80;;;;;;5094061;28;20196;-70
2021/05/11 02:47:24;;;;;;;9.13;2.58;;;13.20;77.20;;;;;;5093949;28;20233;-70
2021/05/11 02:49:51;;;;;;;3.55;2.83;;;13.10;76.50;;;;;;5093886;28;20193;-71
2021/05/11 02:52:18;;;;;;;3.65;2.95;;;13.10;76.10;;;;;;5093184;28;20553;-70
2021/05/11 02:54:45;;;;;;;4.53;3.10;;;13.10;76.50;;;;;;5093672;28;20547;-70
2021/05/11 02:57:12;;;;;;;4.20;3.10;;;13.00;77.10;;;;;;5093503;28;20655;-70
2021/05/11 02:59:39;;;;;;;4.80;3.47;;;13.00;77.10;;;;;;5093527;28;20268;-70
2021/05/11 03:02:09;;;;;;;8.73;2.85;;;13.00;77.00;;;;;;5093199;28;20213;-70
2021/05/11 03:04:36;;;;;;;6.45;3.78;;;12.90;76.80;;;;;;5093313;28;20199;-70
2021/05/11 03:07:03;;;;;;;4.00;3.30;;;12.80;77.60;;;;;;5093187;28;20191;-70
2021/05/11 03:09:30;;;;;;;5.20;4.45;;;12.70;78.40;;;;;;5093423;28;20208;-70
2021/05/11 03:11:57;;;;;;;7.10;4.10;;;12.70;78.40;;;;;;5092990;28;20193;-70
2021/05/11 03:14:24;;;;;;;5.38;3.42;;;12.70;78.50;;;;;;5093337;28;20562;-70
2021/05/11 03:16:53;;;;;;;4.65;3.58;;;12.70;79.20;;;;;;5093220;28;20591;-70
2021/05/11 03:19:20;;;;;;;6.28;3.75;;;12.80;80.00;;;;;;5093676;28;20189;-71
2021/05/11 03:21:47;;;;;;;4.57;3.67;;;12.80;79.40;;;;;;5092673;28;20690;-70
2021/05/11 03:24:14;;;;;;;4.07;3.20;;;12.80;79.60;;;;;;5093194;28;20196;-70
2021/05/11 03:26:40;;;;;;;5.30;3.55;;;12.90;80.10;;;;;;5092923;28;20185;-70
2021/05/11 03:29:07;;;;;;;8.68;3.05;;;12.90;79.80;;;;;;5093230;28;20214;-71
2021/05/11 03:31:34;;;;;;;4.88;2.80;;;12.90;80.30;;;;;;5092394;28;20757;-70
2021/05/11 03:34:00;;;;;;;4.82;3.70;;;12.90;79.60;;;;;;5093125;28;20193;-70
2021/05/11 03:36:28;;;;;;;4.53;2.85;;;12.90;80.30;;;;;;5092859;28;20203;-70
2021/05/11 03:38:56;;;;;;;6.10;3.17;;;12.90;77.50;;;;;;5093022;28;20246;-71
2021/05/11 03:41:26;;;;;;;5.25;2.40;;;12.80;76.30;;;;;;5092502;28;20217;-70
2021/05/11 03:43:56;;;;;;;3.40;2.90;;;12.70;76.90;;;;;;5093001;28;20559;-70
2021/05/11 03:46:23;;;;;;;4.50;3.00;;;12.70;77.20;;;;;;5092804;28;20215;-71
2021/05/11 03:48:49;;;;;;;4.13;2.90;;;12.60;77.30;;;;;;5092776;28;20200;-71
2021/05/11 03:51:17;;;;;;;3.92;3.00;;;12.60;78.50;;;;;;5092033;28;20230;-70
2021/05/11 03:53:44;;;;;;;3.45;2.42;;;12.50;79.30;;;;;;5092583;28;20193;-70
2021/05/11 03:56:11;;;;;;;3.85;2.85;;;12.50;79.00;;;;;;5092334;28;20585;-70
2021/05/11 03:58:38;;;;;;;3.90;2.85;;;12.40;78.30;;;;;;5092809;28;20197;-70
2021/05/11 04:01:05;;;;;;;4.03;2.53;;;12.40;79.40;;;;;;5092193;28;20224;-70
2021/05/11 04:03:31;;;;;;;4.13;3.00;;;12.30;79.80;;;;;;5092663;28;20280;-70
2021/05/11 04:06:01;;;;;;;7.82;4.72;;;12.30;80.00;;;;;;5092526;28;20185;-70
2021/05/11 04:08:37;;;;;;;8.68;5.47;;;12.40;80.20;;;;;;5092815;28;20195;-70
2021/05/11 04:11:15;;;;;;;8.95;5.63;;;12.40;80.30;;;;;;5092453;28;20184;-70
2021/05/11 04:13:58;;;;;;;11.80;5.43;;;12.40;80.30;;;;;;5092808;28;20196;-70
2021/05/11 04:16:27;;;;;;;6.82;4.40;;;12.30;80.30;;;;;;5092048;28;20180;-70
2021/05/11 04:18:56;;;;;;;5.78;3.63;;;12.30;80.30;;;;;;5093003;28;20189;-70
2021/05/11 04:21:23;;;;;;;4.45;2.72;;;12.40;79.90;;;;;;5092444;28;21083;-70
2021/05/11 04:23:51;;;;;;;3.97;2.85;;;12.40;78.30;;;;;;5092744;28;20200;-70
2021/05/11 04:26:21;;;;;;;3.97;3.17;;;12.30;78.00;;;;;;5092120;28;20219;-69
2021/05/11 04:28:50;;;;;;;6.82;3.13;;;12.30;78.30;;;;;;5092669;28;20192;-70
2021/05/11 04:31:18;;;;;;;5.13;3.53;;;12.30;78.60;;;;;;5092161;28;20256;-70
2021/05/11 04:33:45;;;;;;;9.77;3.80;;;12.30;78.90;;;;;;5092515;28;20197;-70
2021/05/11 04:36:13;;;;;;;6.75;4.07;;;12.30;79.90;;;;;;5087213;28;20769;-70
2021/05/11 04:38:40;;;;;;;4.53;3.95;;;12.30;80.30;;;;;;5088739;28;20181;-70
2021/05/11 04:41:08;;;;;;;3.85;3.42;;;12.30;80.70;;;;;;5089890;28;20213;-70
2021/05/11 04:43:36;;;;;;;9.20;4.07;;;12.30;78.80;;;;;;5086530;28;20287;-70
2021/05/11 04:46:08;;;;;;;9.30;5.00;;;12.30;79.00;;;;;;5087813;28;20205;-70
2021/05/11 04:48:35;;;;;;;6.47;5.50;;;12.30;79.40;;;;;;5090310;28;20193;-72
2021/05/11 04:51:02;;;;;;;8.98;5.55;;;12.30;79.80;;;;;;5089308;28;20276;-70
2021/05/11 04:53:29;;;;;;;8.15;5.75;;;12.30;80.00;;;;;;5094906;28;20201;-70
2021/05/11 04:55:57;;;;;;;9.07;4.90;;;12.30;80.20;;;;;;5094673;28;20275;-71
2021/05/11 04:58:25;;;;;;;5.80;4.85;;;12.30;81.50;;;;;;5094079;28;20204;-71
2021/05/11 05:01:00;;;;;;;6.75;4.13;;;12.30;81.90;;;;;;5090158;28;20223;-71
2021/05/11 05:03:27;;;;;;;5.20;3.90;;;12.30;83.30;;;;;;5094437;28;20238;-71
2021/05/11 05:05:54;;;;;;;6.20;3.70;;;12.40;84.70;;;;;;5093687;28;20268;-71
2021/05/11 05:08:20;;;;;;;7.63;4.47;;;12.50;86.00;;;;;;5092297;28;20192;-70
2021/05/11 05:10:47;;;;;;;8.98;4.07;;;12.60;86.20;;;;;;5093558;28;20276;-71
2021/05/11 05:13:19;;;;;;;5.60;3.97;;;12.80;86.00;;;;;;5094368;28;20198;-71
2021/05/11 05:15:55;;;;;;;6.43;4.15;;;12.90;85.40;;;;;;5093815;28;20592;-70
2021/05/11 05:18:22;;;;;;;6.70;4.43;;;13.20;85.80;;;;;;5092430;28;20200;-71
2021/05/11 05:20:50;;;;;;;7.20;5.15;;;13.30;85.80;;;;;;5093728;28;20216;-71
2021/05/11 05:23:16;;;;;;;5.63;4.25;;;13.40;85.20;;;;;;5093388;28;20196;-71
2021/05/11 05:25:49;;;;;;;6.53;3.45;;;13.50;84.80;;;;;;5093563;28;20242;-71
2021/05/11 05:28:15;;;;;;;9.50;4.82;;;13.60;84.10;;;;;;5093871;28;20192;-70
2021/05/11 05:30:42;;;;;;;3.40;2.83;;;13.80;83.30;;;;;;5093102;28;20220;-70
2021/05/11 05:33:13;;;;;;;4.65;3.83;;;13.80;81.10;;;;;;5093112;28;20201;-70
2021/05/11 05:35:39;;;;;;;5.63;3.67;;;13.90;80.50;;;;;;5089477;28;20193;-71
2021/05/11 05:38:06;;;;;;;6.43;3.80;;;14.00;80.70;;;;;;5094068;28;20197;-71
2021/05/11 05:40:38;;;;;;;6.20;3.50;;;14.10;81.50;;;;;;5093484;28;20269;-71
2021/05/11 05:43:06;;;;;;;4.35;3.63;;;14.10;81.60;;;;;;5093100;28;20187;-72
2021/05/11 05:45:33;;;;;;;4.35;3.95;;;14.30;80.50;;;;;;5089839;28;20651;-77
2021/05/11 05:48:00;;;;;;;5.50;2.92;;;14.40;80.70;;;;;;5093512;28;20189;-74
2021/05/11 05:50:32;;;;;;;4.68;3.88;;;14.60;81.10;;;;;;5093095;28;20242;-73
2021/05/11 05:53:01;;;;;;;4.57;3.07;;;14.80;81.30;;;;;;5089569;28;20602;-73
2021/05/11 05:55:28;;;;;;;6.87;3.00;;;14.90;80.10;;;;;;5093763;28;20454;-74
2021/05/11 05:57:55;;;;;;;4.13;3.00;;;15.00;80.10;;;;;;5093476;28;20436;-71
2021/05/11 06:00:24;;;;;;;3.85;3.17;;;15.10;78.80;;;;;;5093174;28;20490;-71
2021/05/11 06:02:52;;;;;;;5.47;3.30;;;15.20;78.40;;;;;;5092973;28;20196;-71
2021/05/11 06:05:21;;;;;;;6.00;3.60;;;15.30;77.20;;;;;;5092710;28;20439;-71
2021/05/11 06:07:51;;;;;;;7.27;3.93;;;15.40;77.30;;;;;;5092848;28;20434;-72
2021/05/11 06:10:19;;;;;;;3.13;2.67;;;15.50;76.30;;;;;;5089379;28;20438;-71
2021/05/11 06:12:51;;;;;;;2.87;2.53;;;15.60;75.80;;;;;;5092669;28;20447;-71
2021/05/11 06:18:03;;;;;;;3.40;2.87;;;15.90;76.00;;;;;;5091735;28;20441;-71
2021/05/11 06:20:30;;;;;;;3.00;2.30;;;16.00;75.00;;;;;;5092317;28;20462;-72
2021/05/11 06:22:59;;;;;;;3.50;3.00;;;16.10;73.80;;;;;;5093283;28;20502;-71
2021/05/11 06:25:26;;;;;;;4.00;3.13;;;16.20;73.30;;;;;;5092137;28;20443;-72
2021/05/11 06:28:04;;;;;;;3.20;2.80;;;16.30;73.00;;;;;;5092200;28;20458;-72
2021/05/11 06:30:31;;;;;;;3.30;2.87;;;16.40;72.40;;;;;;5092188;28;20972;-71
2021/05/11 06:32:58;;;;;;;5.50;3.10;;;16.50;73.70;;;;;;5092682;28;20482;-72
2021/05/11 06:35:26;;;;;;;4.10;3.67;;;16.60;73.40;;;;;;5093337;28;20955;-72
2021/05/11 06:37:57;;;;;;;3.97;3.03;;;16.80;70.90;;;;;;5088569;28;20443;-71
2021/05/11 06:40:24;;;;;;;2.90;2.50;;;16.90;70.40;;;;;;5090847;28;20861;-71
2021/05/11 06:42:50;;;;;;;2.70;2.23;;;17.00;71.00;;;;;;5093384;28;20443;-71
2021/05/11 06:45:41;;;;;;;2.90;1.80;;;17.10;69.20;;;;;;5089381;28;20478;-71
2021/05/11 06:48:08;;;;;;;3.33;2.37;;;17.20;67.10;;;;;;5091943;28;20902;-72
2021/05/11 06:50:38;;;;;;;4.40;2.10;;;17.30;68.60;;;;;;5088607;28;20454;-72
2021/05/11 06:53:12;;;;;;;3.77;2.40;;;17.30;68.90;;;;;;5092227;28;20439;-71
2021/05/11 06:55:41;;;;;;;4.43;2.40;;;17.40;69.30;;;;;;5091907;28;20435;-71
2021/05/11 06:58:08;;;;;;;3.10;1.97;;;17.50;68.30;;;;;;5091199;28;20434;-70
2021/05/11 07:00:34;;;;;;;5.43;2.70;;;17.60;68.60;;;;;;5092398;28;20478;-71
2021/05/11 07:03:01;;;;;;;3.50;2.43;;;17.50;67.50;;;;;;5090798;28;20435;-72
2021/05/11 07:05:30;;;;;;;5.07;2.40;;;17.50;68.50;;;;;;5087276;28;20431;-71
2021/05/11 07:08:05;;;;;;;4.37;2.53;;;17.50;67.20;;;;;;5090654;28;20435;-71
2021/05/11 07:10:34;;;;;;;4.70;2.80;;;17.60;68.30;;;;;;5091215;28;20513;-71
2021/05/11 07:13:11;;;;;;;3.70;2.67;;;17.60;68.20;;;;;;5089699;28;20442;-71
2021/05/11 07:15:40;;;;;;;5.60;3.47;;;17.90;67.90;;;;;;5090550;28;20436;-71
2021/05/11 07:18:12;;;;;;;3.97;2.77;;;18.20;68.00;;;;;;5090201;28;20431;-71
2021/05/11 07:20:40;;;;;;;4.47;2.23;;;18.40;66.70;;;;;;5087658;28;20566;-70
2021/05/11 07:23:07;;;;;;;4.27;2.90;;;18.60;65.90;;;;;;5091165;28;20431;-71
2021/05/11 07:25:42;;;;;;;5.17;3.00;;;18.70;63.20;;;;;;5091140;28;20810;-71
2021/05/11 07:28:36;;;;;;;5.77;2.33;;;18.80;61.90;;;;;;5088620;28;20435;-71
2021/05/11 07:31:05;;;;;;;5.07;2.40;;;18.80;61.20;;;;;;5088149;28;20886;-71
2021/05/11 07:33:34;;;;;;;4.03;3.10;;;19.00;62.80;;;;;;5091551;28;20447;-71
2021/05/11 07:36:01;;;;;;;5.30;2.70;;;19.20;62.20;;;;;;5091290;28;20447;-73
2021/05/11 07:38:28;;;;;;;6.70;2.60;;;19.40;63.30;;;;;;5091236;28;21022;-71
2021/05/11 07:40:56;;;;;;;3.30;2.27;;;19.70;62.80;;;;;;5091401;28;20483;-71
2021/05/11 07:43:24;;;;;;;3.80;2.23;;;19.90;61.80;;;;;;5091139;28;20445;-71
2021/05/11 07:49:16;;;;;;;5.00;2.63;;;20.40;60.30;;;;;;5052822;28;20427;-71
2021/05/11 08:03:36;;;;;;;3.03;1.80;;;20.90;56.80;;;;;;5089754;28;20927;-71
2021/05/11 08:14:43;;;;;;;3.00;1.80;;;20.80;55.40;;;;;;5091774;28;20520;-71
2021/05/11 08:17:10;;;;;;;7.07;2.20;;;20.80;55.20;;;;;;5087314;28;20921;-71
2021/05/11 08:19:56;;;;;;;4.90;1.93;;;20.70;55.50;;;;;;5091295;28;20446;-71
2021/05/11 08:28:07;;;;;;;3.60;1.60;;;20.80;55.80;;;;;;5094877;28;20527;-73
2021/05/11 08:30:34;;;;;;;3.30;1.83;;;20.90;55.50;;;;;;5095376;28;20598;-71
2021/05/11 08:33:06;;;;;;;4.33;1.77;;;21.10;56.20;;;;;;5095007;28;20453;-72
2021/05/11 08:35:32;;;;;;;3.43;2.00;;;21.30;56.40;;;;;;5091100;28;20743;-71
2021/05/11 08:37:59;;;;;;;5.33;2.07;;;21.60;56.00;;;;;;5094644;28;20454;-71
2021/05/11 08:40:25;;;;;;;3.97;1.50;;;21.90;55.30;;;;;;5094853;28;20431;-71
2021/05/11 08:42:57;;;;;;;2.70;1.50;;;22.10;54.70;;;;;;5094921;28;20419;-72
2021/05/11 08:45:24;;;;;;;3.00;1.10;;;22.20;55.00;;;;;;5094898;28;20448;-71
2021/05/11 08:47:52;;;;;;;3.07;1.20;;;22.40;53.10;;;;;;5094852;28;20436;-72
2021/05/11 08:50:26;;;;;;;3.10;1.73;;;22.60;52.30;;;;;;5094264;28;20808;-72
2021/05/11 08:53:20;;;;;;;2.47;1.40;;;22.80;52.30;;;;;;5091089;28;20858;-71
2021/05/11 09:07:46;;;;;;;2.23;1.23;;;23.50;50.30;;;;;;5078088;28;20426;-72
2021/05/11 09:16:30;;;;;;;2.60;1.40;;;24.00;48.80;;;;;;5094159;28;20782;-72
2021/05/11 09:24:58;;;;;;;5.13;2.60;;;24.00;48.80;;;;;;5094484;28;20522;-71
2021/05/11 09:27:40;;;;;;;3.30;1.70;;;24.10;48.00;;;;;;5094122;28;20454;-72
2021/05/11 09:30:21;;;;;;;6.63;3.50;;;24.10;48.00;;;;;;5093434;28;20501;-73
2021/05/11 09:33:07;;;;;;;6.27;1.53;;;24.10;48.30;;;;;;5092053;28;20451;-72
2021/05/11 09:58:40;;;;;;;3.33;1.80;;;24.70;45.70;;;;;;5055146;28;20784;-72
2021/05/11 10:48:42;;;;;;;3.00;2.00;;;23.80;47.80;;;;;;5089766;28;20431;-72
2021/05/11 10:51:30;;;;;;;3.20;1.83;;;23.80;48.20;;;;;;5091495;28;20929;-72
2021/05/11 10:54:04;;;;;;;3.23;2.43;;;23.80;48.10;;;;;;5089945;28;20459;-71
2021/05/11 10:59:50;;;;;;;2.80;1.90;;;24.20;48.30;;;;;;5085162;28;20436;-72
2021/05/11 11:02:38;;;;;;;6.90;2.23;;;24.50;49.70;;;;;;5090387;28;20489;-72
2021/05/11 11:05:06;;;;;;;3.10;2.50;;;24.70;48.80;;;;;;5089461;28;20439;-73
2021/05/11 11:07:38;;;;;;;3.60;2.90;;;24.70;46.20;;;;;;5090613;28;20447;-72
2021/05/11 11:10:09;;;;;;;2.80;2.03;;;24.80;47.50;;;;;;5089699;28;20435;-72
2021/05/11 11:12:38;;;;;;;4.67;2.20;;;25.00;47.10;;;;;;5090477;28;20504;-72
2021/05/11 11:15:19;;;;;;;3.23;1.70;;;25.20;46.70;;;;;;5090252;28;20438;-72
2021/05/11 11:17:52;;;;;;;4.33;1.83;;;25.30;46.50;;;;;;5089701;28;20435;-72
2021/05/11 11:20:28;;;;;;;6.03;2.60;;;25.20;46.80;;;;;;5090609;28;20435;-72
2021/05/11 11:26:04;;;;;;;3.90;2.03;;;25.50;47.60;;;;;;5090491;28;20928;-72
2021/05/11 11:28:31;;;;;;;5.80;1.90;;;25.60;46.90;;;;;;5087656;28;20530;-72
2021/05/11 11:30:59;;;;;;;3.40;2.43;;;25.70;45.70;;;;;;5090887;28;20477;-73
2021/05/11 11:33:30;;;;;;;4.27;2.90;;;25.70;44.30;;;;;;5092006;28;20451;-72
2021/05/11 11:35:57;;;;;;;4.40;2.10;;;25.70;44.80;;;;;;5087395;28;20489;-72
2021/05/11 11:38:26;;;;;;;3.80;2.20;;;25.70;45.00;;;;;;5091554;28;20431;-72
2021/05/11 11:41:02;;;;;;;4.10;1.90;;;25.70;45.80;;;;;;5091144;28;20470;-72
2021/05/11 11:43:30;;;;;;;2.70;1.83;;;25.70;44.00;;;;;;5091735;28;20929;-72
2021/05/11 11:45:59;;;;;;;3.00;1.90;;;25.80;45.20;;;;;;5088384;28;20442;-72
2021/05/11 11:48:26;;;;;;;2.70;1.60;;;25.90;44.70;;;;;;5091672;28;20860;-72
2021/05/11 11:50:57;;;;;;;3.67;2.27;;;25.90;45.50;;;;;;5091826;28;20472;-72
2021/05/11 11:53:29;;;;;;;4.77;2.03;;;25.90;44.20;;;;;;5091667;28;20451;-72
2021/05/11 11:56:34;;;;;;;3.40;2.17;;;25.80;44.00;;;;;;5087446;28;20446;-72
2021/05/11 11:59:05;;;;;;;7.43;1.63;;;25.70;44.70;;;;;;5090060;28;20462;-72
2021/05/11 12:01:33;;;;;;;2.57;1.90;;;25.60;44.80;;;;;;5091595;28;20986;-71
2021/05/11 12:04:01;;;;;;;5.00;1.70;;;25.50;45.30;;;;;;5090999;28;20531;-72
2021/05/11 12:06:29;;;;;;;5.73;1.90;;;25.50;45.60;;;;;;5091362;28;20512;-72
2021/05/11 12:08:55;;;;;;;5.00;2.07;;;25.50;46.30;;;;;;5091656;28;20492;-72
2021/05/11 12:11:22;;;;;;;2.50;1.60;;;25.60;46.10;;;;;;5091493;28;20431;-72
2021/05/11 12:13:53;;;;;;;3.60;2.17;;;25.60;46.50;;;;;;5090825;28;20519;-72
2021/05/11 12:16:24;;;;;;;5.43;1.90;;;25.60;47.20;;;;;;5087869;28;20457;-72
2021/05/11 12:19:05;;;;;;;3.80;2.03;;;25.70;46.70;;;;;;5091851;28;20500;-72
2021/05/11 12:21:33;;;;;;;3.80;2.80;;;26.00;46.50;;;;;;5089218;28;20475;-72
2021/05/11 12:24:08;;;;;;;8.03;3.20;;;25.90;44.50;;;;;;5091708;28;20482;-70
2021/05/11 12:26:35;;;;;;;6.23;3.33;;;25.90;44.20;;;;;;5091299;28;20905;-72
2021/05/11 12:29:06;;;;;;;4.03;2.70;;;25.90;43.60;;;;;;5091229;28;20448;-72
2021/05/11 12:31:38;;;;;;;9.13;2.37;;;25.80;43.90;;;;;;5091217;28;20474;-72
2021/05/11 12:34:07;;;;;;;4.03;2.73;;;25.70;43.40;;;;;;5090406;28;20444;-72
2021/05/11 12:36:40;;;;;;;4.10;2.80;;;25.60;43.20;;;;;;5091218;28;20565;-71
2021/05/11 12:39:26;;;;;;;5.20;2.87;;;25.30;44.00;;;;;;5091355;28;20435;-71
2021/05/11 12:42:08;;;;;;;5.37;3.90;;;25.10;45.00;;;;;;5088419;28;20483;-71
2021/05/11 12:44:35;;;;;;;7.27;3.97;;;24.80;44.90;;;;;;5088097;28;20519;-72
2021/05/11 12:47:02;;;;;;;5.23;3.43;;;24.40;45.30;;;;;;5089030;28;20477;-72
2021/05/11 12:49:30;;;;;;;3.90;3.00;;;24.20;46.10;;;;;;5089308;28;20443;-71
2021/05/11 12:51:57;;;;;;;5.20;3.20;;;24.10;46.30;;;;;;5088456;28;20435;-72
2021/05/11 12:54:27;;;;;;;5.50;2.80;;;24.00;46.90;;;;;;5085954;28;20447;-71
2021/05/11 12:59:55;;;;;;;4.50;2.93;;;24.20;47.20;;;;;;5048849;28;20424;-71
2021/05/11 13:02:36;;;;;;;7.00;2.83;;;24.20;46.80;;;;;;5079289;28;20911;-71
2021/05/11 13:16:35;;;;;;;4.03;3.17;;;24.30;47.10;;;;;;5088960;28;20419;-72
2021/05/11 13:27:25;;;;;;;4.33;2.73;;;24.20;47.30;;;;;;5092837;28;20460;-71
2021/05/11 13:30:21;;;;;;;4.97;2.60;;;24.30;47.10;;;;;;5093078;28;20473;-71
2021/05/11 13:32:56;;;;;;;4.90;2.80;;;24.30;46.80;;;;;;5090697;28;20434;-71
2021/05/11 13:35:23;;;;;;;10.17;2.70;;;24.30;46.20;;;;;;5091252;28;20546;-71
2021/05/11 13:37:52;;;;;;;4.10;2.60;;;24.30;46.20;;;;;;5092951;28;20474;-71
2021/05/11 13:40:19;;;;;;;6.60;4.00;;;24.30;46.40;;;;;;5092669;28;20442;-72
2021/05/11 13:42:46;;;;;;;4.57;2.77;;;24.20;45.50;;;;;;5092636;28;20482;-71
2021/05/11 13:45:13;;;;;;;3.60;2.47;;;24.00;46.00;;;;;;5092857;28;20466;-71
2021/05/11 13:47:41;;;;;;;5.50;3.33;;;23.80;46.10;;;;;;5092603;28;20438;-72
2021/05/11 13:50:12;;;;;;;5.43;3.73;;;23.60;46.20;;;;;;5092044;28;20427;-71
2021/05/11 13:52:39;;;;;;;3.80;2.60;;;23.40;46.60;;;;;;5092618;28;20443;-71
2021/05/11 13:55:16;;;;;;;4.67;2.10;;;23.20;46.90;;;;;;5093969;28;20783;-71
2021/05/11 14:03:19;;;;;;;4.50;2.57;;;22.60;46.70;;;;;;5095455;28;20436;-71
2021/05/11 14:05:46;;;;;;;5.10;3.10;;;22.50;47.60;;;;;;5095171;28;20431;-71
2021/05/11 14:08:13;;;;;;;4.80;2.80;;;22.40;47.90;;;;;;5091349;28;20489;-72
2021/05/11 14:10:45;;;;;;;4.50;2.90;;;22.40;48.10;;;;;;5093810;28;20463;-71
2021/05/11 14:13:12;;;;;;;3.63;2.50;;;22.30;48.10;;;;;;5094111;28;20868;-72
2021/05/11 14:15:38;;;;;;;4.00;3.00;;;22.30;48.20;;;;;;5093297;28;20435;-71
2021/05/11 14:18:05;;;;;;;6.13;4.20;;;22.20;48.70;;;;;;5093937;28;20443;-72
2021/05/11 14:20:32;;;;;;;4.40;3.50;;;22.20;48.60;;;;;;5092815;28;20443;-71
2021/05/11 14:22:59;;;;;;;3.33;2.73;;;22.20;48.00;;;;;;5092408;28;20578;-71
2021/05/11 14:25:25;;;;;;;8.03;3.63;;;22.10;47.90;;;;;;5093654;28;20431;-71
2021/05/11 14:27:54;;;;;;;4.47;3.40;;;22.00;48.10;;;;;;5093383;28;21008;-71
2021/05/11 14:30:24;;;;;;;4.13;3.53;;;21.80;48.80;;;;;;5092639;28;20455;-70
2021/05/11 14:32:51;;;;;;;5.00;3.73;;;21.80;49.20;;;;;;5092519;28;20474;-71
2021/05/11 14:35:19;;;;;;;7.67;5.57;;;21.70;49.40;;;;;;5092800;28;20855;-71
2021/05/11 14:37:46;;;;;;;4.43;3.50;;;21.60;49.50;;;;;;5093148;28;20439;-71
2021/05/11 14:40:16;;;;;;;4.50;3.70;;;21.60;50.20;;;;;;5092785;28;20462;-71
2021/05/11 14:42:44;;;;;;;8.90;4.40;;;21.60;50.50;;;;;;5092405;28;20487;-70
2021/05/11 14:45:13;;;;;;;3.93;3.50;;;21.60;50.60;;;;;;5091589;28;20492;-71
2021/05/11 14:47:45;;;;;;;4.80;4.10;;;21.60;50.80;;;;;;5090291;28;20442;-71
2021/05/11 14:50:18;;;;;;;4.30;3.90;;;21.50;50.90;;;;;;5092595;28;20453;-71
2021/05/11 14:52:49;;;;;;;5.37;4.47;;;21.50;50.80;;;;;;5086734;28;20443;-71
2021/05/11 14:55:23;;;;;;;5.83;3.90;;;21.40;50.70;;;;;;5089524;28;20945;-70
2021/05/11 14:57:50;;;;;;;4.67;3.73;;;21.40;51.00;;;;;;5092522;28;20811;-72
2021/05/11 15:00:19;;;;;;;6.60;4.33;;;21.30;51.50;;;;;;5092471;28;20438;-70
2021/05/11 15:02:49;;;;;;;5.30;4.63;;;21.30;51.60;;;;;;5092756;28;20522;-70
2021/05/11 15:05:16;;;;;;;5.47;4.33;;;21.20;52.00;;;;;;5092653;28;20852;-70
2021/05/11 15:07:43;;;;;;;6.60;5.30;;;21.10;52.40;;;;;;5092702;28;20449;-70
2021/05/11 15:10:10;;;;;;;7.20;6.37;;;20.90;52.00;;;;;;5092338;28;20435;-69
2021/05/11 15:12:37;;;;;;;6.07;5.00;;;20.90;52.20;;;;;;5092923;28;20447;-69
2021/05/11 15:15:05;;;;;;;7.07;6.17;;;20.80;52.70;;;;;;5091762;28;20443;-70
2021/05/11 15:20:18;;;;;;;9.23;5.50;;;20.60;53.30;;;;;;5091551;28;20427;-70
2021/05/11 15:22:50;;;;;;;20.63;18.73;;;20.40;53.70;;;;;;5092019;28;20550;-70
2021/05/11 15:25:20;;;;;;;7.93;6.80;;;20.30;53.80;;;;;;5090682;28;20499;-70
2021/05/11 15:27:48;;;;;;;6.83;6.13;;;20.10;54.20;;;;;;5092444;28;20441;-69
2021/05/11 15:30:16;;;;;;;5.93;5.27;;;20.00;55.10;;;;;;5089399;28;20990;-70
2021/05/11 15:32:47;;;;;;;5.10;4.40;;;20.00;56.10;;;;;;5092226;28;20438;-69
2021/05/11 15:35:16;;;;;;;6.40;4.90;;;19.90;57.20;;;;;;5088506;28;20447;-70
2021/05/11 15:37:45;;;;;;;5.83;4.90;;;19.80;57.20;;;;;;5092179;28;20439;-70
2021/05/11 15:40:14;;;;;;;6.17;5.63;;;19.70;57.10;;;;;;5091670;28;20439;-70
2021/05/11 15:42:41;;;;;;;5.53;5.03;;;19.60;57.20;;;;;;5091867;28;20491;-71
2021/05/11 15:45:12;;;;;;;8.90;7.80;;;19.40;57.20;;;;;;5091466;28;20435;-71
2021/05/11 15:47:52;;;;;;;7.17;5.37;;;19.20;58.20;;;;;;5090881;28;20442;-71
2021/05/11 15:50:27;;;;;;;5.40;4.90;;;19.00;59.10;;;;;;5089275;28;20469;-71
2021/05/11 15:52:55;;;;;;;4.97;4.47;;;18.80;60.30;;;;;;5090361;28;20442;-71
2021/05/11 15:55:23;;;;;;;5.80;4.77;;;18.70;60.50;;;;;;5091022;28;20451;-71
2021/05/11 15:57:53;;;;;;;4.63;4.00;;;18.60;61.10;;;;;;5090132;28;20796;-72
2021/05/11 16:00:21;;;;;;;6.23;5.27;;;18.60;62.60;;;;;;5089505;28;20482;-71
2021/05/11 16:02:50;;;;;;;6.20;4.70;;;18.50;63.50;;;;;;5091919;28;20482;-71
2021/05/11 16:05:18;;;;;;;6.87;5.93;;;18.40;64.60;;;;;;5090993;28;20431;-71
2021/05/11 16:07:46;;;;;;;5.10;4.60;;;18.50;65.80;;;;;;5091777;28;20442;-71
2021/05/11 16:10:13;;;;;;;6.23;4.80;;;18.40;65.80;;;;;;5090345;28;20439;-69
2021/05/11 16:12:42;;;;;;;4.83;4.33;;;18.40;66.40;;;;;;5091457;28;20439;-70
2021/05/11 16:15:12;;;;;;;6.83;5.77;;;18.40;66.60;;;;;;5091177;28;20469;-70
2021/05/11 16:17:41;;;;;;;5.60;4.93;;;18.40;66.70;;;;;;5091642;28;20799;-71